createdAt,value
2022-12-15T00:02:15.243Z,29.40
2022-12-15T00:05:00.502Z,29.33
2022-12-15T00:07:45.486Z,27.90
2022-12-15T00:10:30.750Z,30.67
2022-12-15T00:13:16.051Z,27.80
2022-12-15T00:16:01.251Z,27.40
2022-12-15T00:18:46.643Z,26.47
2022-12-15T00:21:31.650Z,29.20
2022-12-15T00:24:16.992Z,25.63
2022-12-15T00:27:02.455Z,27.47
2022-12-15T00:29:49.328Z,23.90
2022-12-15T00:32:34.689Z,27.57
2022-12-15T00:35:19.984Z,26.37
2022-12-15T00:38:05.171Z,28.37
2022-12-15T00:40:31.726Z,24.70
2022-12-15T00:42:58.297Z,24.57
2022-12-15T00:45:44.835Z,22.03
2022-12-15T00:48:11.422Z,24.30
2022-12-15T00:50:53.134Z,27.90
2022-12-15T00:53:42.449Z,33.53
2022-12-15T00:56:28.292Z,26.70
2022-12-15T00:59:13.958Z,23.60
2022-12-15T01:01:59.346Z,27.40
2022-12-15T01:04:45.240Z,24.80
2022-12-15T01:07:30.595Z,23.33
2022-12-15T01:10:15.546Z,26.10
2022-12-15T01:13:00.771Z,27.10
2022-12-15T01:15:46.887Z,26.63
2022-12-15T01:18:32.099Z,30.97
2022-12-15T01:21:00.863Z,27.20
2022-12-15T01:23:27.943Z,27.93
2022-12-15T01:25:55.782Z,25.30
2022-12-15T01:28:23.071Z,32.17
2022-12-15T01:30:50.184Z,30.07
2022-12-15T01:33:17.704Z,26.73
2022-12-15T01:35:44.469Z,27.90
2022-12-15T01:38:11.401Z,27.73
2022-12-15T01:40:46.836Z,28.00
2022-12-15T01:43:25.046Z,32.87
2022-12-15T01:45:53.078Z,26.90
2022-12-15T01:48:25.272Z,28.60
2022-12-15T01:50:56.990Z,23.63
2022-12-15T01:53:24.131Z,25.97
2022-12-15T01:55:50.940Z,26.07
2022-12-15T01:58:18.445Z,23.97
2022-12-15T02:00:45.131Z,32.93
2022-12-15T02:03:12.134Z,29.63
2022-12-15T02:05:40.153Z,25.93
2022-12-15T02:08:07.203Z,26.90
2022-12-15T02:10:49.075Z,44.20
2022-12-15T02:13:28.724Z,30.20
2022-12-15T02:16:19.550Z,26.90
2022-12-15T02:18:52.268Z,21.80
2022-12-15T02:21:54.995Z,22.90
2022-12-15T02:24:58.017Z,25.00
2022-12-15T02:27:48.445Z,24.90
2022-12-15T02:30:17.109Z,23.00
2022-12-15T02:33:14.784Z,24.33
2022-12-15T02:35:58.216Z,24.57
2022-12-15T02:38:32.632Z,26.30
2022-12-15T02:41:01.114Z,28.43
2022-12-15T02:43:29.759Z,21.83
2022-12-15T02:46:05.686Z,23.77
2022-12-15T02:49:27.803Z,27.07
2022-12-15T02:52:12.550Z,23.90
2022-12-15T02:55:12.391Z,22.87
2022-12-15T02:57:50.804Z,24.00
2022-12-15T03:00:17.969Z,25.70
2022-12-15T03:02:50.851Z,21.77
2022-12-15T03:05:18.899Z,21.67
2022-12-15T03:07:45.633Z,20.10
2022-12-15T03:10:16.291Z,22.00
2022-12-15T03:12:42.917Z,24.37
2022-12-15T03:15:10.116Z,20.97
2022-12-15T03:17:38.253Z,23.20
2022-12-15T03:20:06.145Z,20.33
2022-12-15T03:22:32.775Z,23.83
2022-12-15T03:24:59.414Z,25.70
2022-12-15T03:27:26.023Z,21.30
2022-12-15T03:29:52.628Z,26.30
2022-12-15T03:32:19.282Z,20.30
2022-12-15T03:34:46.027Z,24.00
2022-12-15T03:37:12.615Z,27.80
2022-12-15T03:39:39.198Z,26.37
2022-12-15T03:42:05.859Z,22.43
2022-12-15T03:44:32.528Z,24.43
2022-12-15T03:47:03.219Z,21.37
2022-12-15T03:49:30.463Z,27.10
2022-12-15T03:51:57.142Z,24.80
2022-12-15T03:54:23.738Z,27.30
2022-12-15T03:56:50.379Z,24.07
2022-12-15T03:59:17.091Z,22.87
2022-12-15T04:01:47.967Z,24.70
2022-12-15T04:04:14.679Z,24.67
2022-12-15T04:06:41.277Z,26.97
2022-12-15T04:09:07.783Z,23.33
2022-12-15T04:11:34.332Z,25.83
2022-12-15T04:14:00.935Z,23.77
2022-12-15T04:16:27.546Z,19.00
2022-12-15T04:19:14.122Z,28.63
2022-12-15T04:21:40.663Z,20.97
2022-12-15T04:24:26.058Z,24.33
2022-12-15T04:27:11.453Z,20.23
2022-12-15T04:29:56.802Z,30.77
2022-12-15T04:32:42.444Z,21.30
2022-12-15T04:35:28.194Z,24.57
2022-12-15T04:38:13.824Z,22.33
2022-12-15T04:40:59.017Z,22.03
2022-12-15T04:43:44.006Z,20.80
2022-12-15T04:46:29.417Z,22.43
2022-12-15T04:49:14.867Z,25.70
2022-12-15T04:52:00.053Z,22.60
2022-12-15T04:54:45.266Z,19.53
2022-12-15T04:57:30.118Z,26.07
2022-12-15T05:00:15.449Z,21.10
2022-12-15T05:03:00.741Z,23.30
2022-12-15T05:05:46.112Z,22.50
2022-12-15T05:08:31.126Z,23.30
2022-12-15T05:11:18.317Z,22.90
2022-12-15T05:14:03.664Z,24.83
2022-12-15T05:16:48.905Z,26.10
2022-12-15T05:19:34.129Z,27.50
2022-12-15T05:22:19.455Z,20.80
2022-12-15T05:25:04.720Z,23.63
2022-12-15T05:27:49.999Z,22.00
2022-12-15T05:30:35.374Z,22.37
2022-12-15T05:33:05.710Z,23.03
2022-12-15T05:35:32.315Z,18.47
2022-12-15T05:37:58.944Z,27.20
2022-12-15T05:40:25.467Z,21.37
2022-12-15T05:42:52.087Z,21.73
2022-12-15T05:45:18.666Z,24.67
2022-12-15T05:47:51.158Z,22.67
2022-12-15T05:50:17.758Z,21.97
2022-12-15T05:52:49.181Z,21.27
2022-12-15T05:55:16.957Z,21.97
2022-12-15T05:57:43.601Z,24.17
2022-12-15T06:00:10.592Z,20.97
2022-12-15T06:02:39.853Z,21.83
2022-12-15T06:05:07.185Z,24.80
2022-12-15T06:07:33.990Z,24.60
2022-12-15T06:10:00.598Z,23.60
2022-12-15T06:12:28.346Z,21.97
2022-12-15T06:14:54.966Z,22.67
2022-12-15T06:17:21.656Z,24.17
2022-12-15T06:19:48.189Z,21.80
2022-12-15T06:22:14.792Z,27.63
2022-12-15T06:24:41.442Z,23.23
2022-12-15T06:27:09.055Z,23.30
2022-12-15T06:29:35.650Z,23.90
2022-12-15T06:32:02.316Z,24.67
2022-12-15T06:34:28.901Z,25.50
2022-12-15T06:36:55.511Z,27.00
2022-12-15T06:39:22.216Z,24.63
2022-12-15T06:41:48.773Z,29.17
2022-12-15T06:44:15.955Z,27.80
2022-12-15T06:46:43.164Z,22.30
2022-12-15T06:49:09.839Z,26.70
2022-12-15T06:51:36.647Z,22.00
2022-12-15T06:54:03.266Z,20.40
2022-12-15T06:56:36.079Z,23.60
2022-12-15T06:59:04.606Z,22.13
2022-12-15T07:01:31.783Z,22.67
2022-12-15T07:04:02.744Z,27.20
2022-12-15T07:06:34.238Z,23.93
2022-12-15T07:09:00.952Z,22.80
2022-12-15T07:11:27.512Z,25.07
2022-12-15T07:13:54.700Z,23.10
2022-12-15T07:16:23.009Z,20.00
2022-12-15T07:18:49.860Z,25.20
2022-12-15T07:21:16.577Z,25.27
2022-12-15T07:23:54.657Z,23.77
2022-12-15T07:26:22.503Z,23.87
2022-12-15T07:28:49.106Z,22.93
2022-12-15T07:31:15.982Z,22.73
2022-12-15T07:33:42.610Z,20.87
2022-12-15T07:36:09.655Z,24.03
2022-12-15T07:38:36.597Z,25.90
2022-12-15T07:41:05.000Z,22.77
2022-12-15T07:43:32.838Z,26.67
2022-12-15T07:46:01.019Z,27.53
2022-12-15T07:48:27.682Z,25.73
2022-12-15T07:51:02.754Z,27.07
2022-12-15T07:53:34.226Z,22.13
2022-12-15T07:56:10.160Z,27.40
2022-12-15T07:58:38.036Z,29.17
2022-12-15T08:01:07.138Z,33.67
2022-12-15T08:03:35.460Z,28.53
2022-12-15T08:06:12.886Z,29.50
2022-12-15T08:08:40.376Z,25.40
2022-12-15T08:11:11.696Z,25.03
2022-12-15T08:16:26.023Z,22.23
2022-12-15T08:18:53.047Z,32.20
2022-12-15T08:21:19.698Z,23.83
2022-12-15T08:23:46.334Z,25.27
2022-12-15T08:26:16.492Z,26.73
2022-12-15T08:28:43.970Z,26.10
2022-12-15T08:31:13.497Z,23.90
2022-12-15T08:33:40.453Z,25.90
2022-12-15T08:36:09.634Z,26.60
2022-12-15T08:38:38.628Z,26.97
2022-12-15T08:41:15.916Z,26.47
2022-12-15T08:43:48.964Z,26.57
2022-12-15T08:46:26.780Z,26.43
2022-12-15T08:48:53.865Z,27.07
2022-12-15T08:51:21.500Z,30.00
2022-12-15T08:54:05.953Z,31.20
2022-12-15T08:56:41.415Z,34.60
2022-12-15T08:59:09.758Z,28.53
2022-12-15T09:01:40.389Z,30.77
2022-12-15T09:04:07.528Z,24.93
2022-12-15T09:06:35.447Z,30.83
2022-12-15T09:09:05.188Z,28.40
2022-12-15T09:11:32.236Z,26.00
2022-12-15T09:13:59.125Z,29.57
2022-12-15T09:16:26.320Z,28.60
2022-12-15T09:18:55.395Z,28.50
2022-12-15T09:21:25.111Z,35.30
2022-12-15T09:23:53.385Z,29.13
2022-12-15T09:26:23.199Z,30.20
2022-12-15T09:28:51.246Z,29.43
2022-12-15T09:31:23.456Z,27.50
2022-12-15T09:37:08.005Z,27.17
2022-12-15T09:39:41.625Z,28.10
2022-12-15T09:42:27.991Z,28.60
2022-12-15T09:45:09.636Z,27.93
2022-12-15T09:48:06.122Z,29.10
2022-12-15T09:50:35.253Z,31.40
2022-12-15T09:53:02.451Z,31.80
2022-12-15T09:55:30.962Z,38.10
2022-12-15T09:58:06.047Z,29.40
2022-12-15T10:00:44.454Z,28.83
2022-12-15T10:03:30.581Z,31.53
2022-12-15T10:06:20.050Z,27.30
2022-12-15T10:08:56.762Z,28.53
2022-12-15T10:11:35.823Z,35.53
2022-12-15T10:14:13.858Z,33.10
2022-12-15T10:17:01.225Z,32.90
2022-12-15T10:19:36.774Z,30.50
2022-12-15T10:22:03.466Z,29.57
2022-12-15T10:25:07.922Z,32.97
2022-12-15T10:27:36.663Z,32.43
2022-12-15T10:30:09.181Z,29.30
2022-12-15T10:32:52.561Z,27.47
2022-12-15T10:35:27.566Z,31.60
2022-12-15T10:38:37.816Z,32.63
2022-12-15T10:41:06.729Z,28.87
2022-12-15T10:43:44.321Z,29.63
2022-12-15T10:46:21.877Z,31.50
2022-12-15T10:49:11.909Z,30.90
2022-12-15T10:51:57.170Z,30.30
2022-12-15T10:54:26.996Z,27.90
2022-12-15T10:56:56.312Z,30.03
2022-12-15T10:59:22.807Z,30.67
2022-12-15T11:04:36.283Z,34.63
2022-12-15T11:07:04.105Z,32.53
2022-12-15T11:09:36.281Z,28.30
2022-12-15T11:12:35.821Z,31.50
2022-12-15T11:15:02.738Z,30.03
2022-12-15T11:17:39.620Z,38.60
2022-12-15T11:20:17.090Z,26.93
2022-12-15T11:22:47.244Z,29.97
2022-12-15T11:25:35.675Z,32.80
2022-12-15T11:28:06.843Z,32.60
2022-12-15T11:30:38.979Z,31.10
2022-12-15T11:33:07.246Z,32.33
2022-12-15T11:35:46.128Z,40.43
2022-12-15T11:38:18.343Z,33.70
2022-12-15T11:40:45.143Z,32.00
2022-12-15T11:43:15.129Z,32.53
2022-12-15T11:46:03.435Z,40.40
2022-12-15T11:48:54.769Z,35.30
2022-12-15T11:51:27.381Z,34.77
2022-12-15T11:54:20.317Z,34.83
2022-12-15T11:57:00.654Z,37.17
2022-12-15T11:59:36.435Z,32.67
2022-12-15T12:02:12.242Z,39.60
2022-12-15T12:05:09.795Z,35.10
2022-12-15T12:07:46.538Z,33.70
2022-12-15T12:10:30.992Z,37.60
2022-12-15T12:13:19.017Z,40.27
2022-12-15T12:16:26.591Z,37.30
2022-12-15T12:19:04.667Z,34.50
2022-12-15T12:21:42.948Z,29.97
2022-12-15T12:24:19.714Z,31.17
2022-12-15T12:26:56.738Z,31.20
2022-12-15T12:29:30.866Z,32.47
2022-12-15T12:32:04.772Z,31.77
2022-12-15T12:35:31.178Z,32.37
2022-12-15T12:41:02.803Z,29.33
2022-12-15T12:43:44.562Z,35.53
2022-12-15T12:46:44.347Z,31.10
2022-12-15T12:49:26.639Z,28.70
2022-12-15T12:51:55.388Z,32.63
2022-12-15T12:54:36.996Z,32.43
2022-12-15T12:57:12.560Z,26.97
2022-12-15T12:59:42.152Z,39.80
2022-12-15T13:02:15.041Z,28.47
2022-12-15T13:04:51.891Z,33.80
2022-12-15T13:07:36.299Z,31.33
2022-12-15T13:10:08.910Z,29.10
2022-12-15T13:12:53.520Z,29.70
2022-12-15T13:15:42.787Z,28.87
2022-12-15T13:18:14.034Z,31.90
2022-12-15T13:20:41.198Z,26.20
2022-12-15T13:23:18.959Z,28.57
2022-12-15T13:25:57.689Z,30.33
2022-12-15T13:28:35.033Z,27.83
2022-12-15T13:31:20.790Z,29.67
2022-12-15T13:33:50.360Z,27.50
2022-12-15T13:36:42.113Z,25.50
2022-12-15T13:39:12.186Z,27.53
2022-12-15T13:41:54.278Z,28.83
2022-12-15T13:44:44.192Z,30.70
2022-12-15T13:47:18.299Z,28.20
2022-12-15T13:50:09.421Z,24.50
2022-12-15T13:55:39.232Z,27.10
2022-12-15T13:58:17.603Z,27.17
2022-12-15T14:00:51.347Z,24.50
2022-12-15T14:03:18.098Z,27.03
2022-12-15T14:05:51.266Z,25.87
2022-12-15T14:08:18.740Z,25.60
2022-12-15T14:10:55.087Z,27.50
2022-12-15T14:13:30.338Z,24.90
2022-12-15T14:16:19.025Z,27.43
2022-12-15T14:19:03.192Z,23.40
2022-12-15T14:21:30.409Z,24.77
2022-12-15T14:24:36.343Z,27.67
2022-12-15T14:26:44.611Z,27.60
2022-12-15T14:29:12.982Z,30.30
2022-12-15T14:31:40.628Z,24.73
2022-12-15T14:34:19.950Z,26.17
2022-12-15T14:36:47.879Z,30.17
2022-12-15T14:39:34.380Z,29.17
2022-12-15T14:42:02.005Z,25.30
2022-12-15T14:44:39.085Z,29.00
2022-12-15T14:47:08.968Z,23.17
2022-12-15T14:49:41.440Z,26.20
2022-12-15T14:52:22.208Z,25.07
2022-12-15T14:54:57.853Z,28.00
2022-12-15T14:57:39.256Z,24.70
2022-12-15T15:00:27.887Z,24.90
2022-12-15T15:03:04.147Z,31.60
2022-12-15T15:03:11.539Z,26.47
2022-12-15T15:03:15.799Z,31.37
2022-12-15T15:03:20.183Z,26.60
2022-12-15T15:05:48.470Z,26.87
2022-12-15T15:08:20.005Z,27.40
2022-12-15T15:10:46.832Z,27.77
2022-12-15T15:13:22.050Z,26.53
2022-12-15T15:15:56.658Z,23.60
2022-12-15T15:18:26.510Z,31.93
2022-12-15T15:21:01.728Z,26.73
2022-12-15T15:23:28.536Z,26.90
2022-12-15T15:26:05.061Z,23.67
2022-12-15T15:28:42.486Z,25.27
2022-12-15T15:31:24.482Z,27.27
2022-12-15T15:33:51.822Z,31.73
2022-12-15T15:36:18.488Z,26.37
2022-12-15T15:38:46.826Z,28.20
2022-12-15T15:41:21.082Z,29.20
2022-12-15T15:43:48.008Z,25.80
2022-12-15T15:46:16.821Z,30.53
2022-12-15T15:48:49.600Z,28.87
2022-12-15T15:51:16.371Z,27.07
2022-12-15T15:53:43.189Z,27.13
2022-12-15T15:56:12.050Z,24.07
2022-12-15T15:58:38.848Z,31.10
2022-12-15T16:01:11.135Z,28.07
2022-12-15T16:03:39.596Z,28.63
2022-12-15T16:06:09.418Z,28.80
2022-12-15T16:08:37.102Z,30.63
2022-12-15T16:11:03.858Z,28.63
2022-12-15T16:13:30.513Z,25.43
2022-12-15T16:15:57.205Z,25.60
2022-12-15T16:18:23.878Z,25.57
2022-12-15T16:20:51.449Z,27.80
2022-12-15T16:23:21.254Z,26.50
2022-12-15T16:25:51.273Z,25.30
2022-12-15T16:28:20.501Z,26.03
2022-12-15T16:30:47.576Z,27.00
2022-12-15T16:33:14.859Z,28.40
2022-12-15T16:35:42.604Z,27.33
2022-12-15T16:38:30.810Z,25.03
2022-12-15T16:40:59.725Z,23.23
2022-12-15T16:43:32.897Z,28.80
2022-12-15T16:46:03.144Z,26.20
2022-12-15T16:48:30.281Z,22.90
2022-12-15T16:50:59.325Z,23.17
2022-12-15T16:53:26.844Z,21.50
2022-12-15T16:56:00.027Z,22.20
2022-12-15T16:58:27.667Z,23.37
2022-12-15T17:00:54.826Z,25.47
2022-12-15T17:03:28.626Z,23.17
2022-12-15T17:06:00.923Z,26.10
2022-12-15T17:08:31.712Z,24.80
2022-12-15T17:10:58.727Z,27.77
2022-12-15T17:13:37.662Z,26.93
2022-12-15T17:16:11.257Z,24.57
2022-12-15T17:18:38.115Z,26.10
2022-12-15T17:21:07.862Z,27.70
2022-12-15T17:23:35.357Z,26.57
2022-12-15T17:26:22.669Z,25.17
2022-12-15T17:28:49.489Z,27.63
2022-12-15T17:31:21.244Z,27.50
2022-12-15T17:33:48.297Z,26.67
2022-12-15T17:36:23.549Z,28.63
2022-12-15T17:38:54.798Z,22.63
2022-12-15T17:41:50.381Z,25.27
2022-12-15T17:44:32.983Z,23.70
2022-12-15T17:47:00.826Z,29.63
2022-12-15T17:49:33.041Z,27.43
2022-12-15T17:52:05.046Z,27.67
2022-12-15T17:54:31.726Z,29.87
2022-12-15T17:56:58.619Z,25.97
2022-12-15T17:59:25.354Z,27.70
2022-12-15T18:01:52.289Z,24.90
2022-12-15T18:04:19.111Z,23.60
2022-12-15T18:06:45.838Z,25.70
2022-12-15T18:09:17.461Z,24.03
2022-12-15T18:11:46.685Z,28.30
2022-12-15T18:14:15.546Z,22.70
2022-12-15T18:16:42.459Z,26.10
2022-12-15T18:19:09.136Z,25.83
2022-12-15T18:21:36.208Z,30.40
2022-12-15T18:24:03.489Z,26.13
2022-12-15T18:26:31.479Z,25.07
2022-12-15T18:28:58.059Z,26.07
2022-12-15T18:31:30.292Z,23.97
2022-12-15T18:34:04.040Z,28.53
2022-12-15T18:36:31.567Z,31.73
2022-12-15T18:38:59.459Z,28.73
2022-12-15T18:41:26.336Z,29.63
2022-12-15T18:43:56.299Z,23.13
2022-12-15T18:46:23.051Z,26.80
2022-12-15T18:48:49.693Z,28.10
2022-12-15T18:51:18.572Z,28.47
2022-12-15T18:53:45.678Z,25.40
2022-12-15T18:56:14.937Z,28.80
2022-12-15T18:58:42.374Z,23.00
2022-12-15T19:01:09.353Z,27.47
2022-12-15T19:03:36.730Z,21.83
2022-12-15T19:06:10.863Z,22.83
2022-12-15T19:08:38.994Z,25.57
2022-12-15T19:11:23.581Z,23.00
2022-12-15T19:13:50.596Z,20.77
2022-12-15T19:16:19.887Z,22.37
2022-12-15T19:19:05.334Z,28.13
2022-12-15T19:21:53.051Z,25.20
2022-12-15T19:24:45.138Z,21.93
2022-12-15T19:27:13.050Z,24.07
2022-12-15T19:29:40.766Z,24.33
2022-12-15T19:32:08.396Z,27.87
2022-12-15T19:34:35.843Z,25.13
2022-12-15T19:37:03.909Z,24.10
2022-12-15T19:39:33.337Z,22.83
2022-12-15T19:42:00.173Z,24.47
2022-12-15T19:44:27.480Z,19.70
2022-12-15T19:46:54.283Z,17.30
2022-12-15T19:49:20.894Z,19.27
2022-12-15T19:51:47.764Z,20.90
2022-12-15T19:54:21.172Z,27.83
2022-12-15T19:56:48.352Z,23.63
2022-12-15T19:59:22.413Z,27.20
2022-12-15T20:01:51.852Z,27.80
2022-12-15T20:04:22.448Z,28.83
2022-12-15T20:06:50.922Z,28.43
2022-12-15T20:09:18.733Z,28.60
2022-12-15T20:11:45.491Z,23.63
2022-12-15T20:14:13.703Z,25.47
2022-12-15T20:16:40.472Z,25.43
2022-12-15T20:19:07.268Z,25.50
2022-12-15T20:21:37.137Z,21.70
2022-12-15T20:24:09.318Z,22.47
2022-12-15T20:26:37.504Z,21.97
2022-12-15T20:29:05.208Z,28.47
2022-12-15T20:31:31.931Z,21.57
2022-12-15T20:33:58.671Z,19.80
2022-12-15T20:36:28.359Z,21.13
2022-12-15T20:38:55.202Z,25.37
2022-12-15T20:41:23.976Z,26.00
2022-12-15T20:43:51.736Z,27.53
2022-12-15T20:46:21.641Z,26.03
2022-12-15T20:48:49.372Z,27.43
2022-12-15T20:51:25.485Z,27.80
2022-12-15T20:53:53.367Z,28.53
2022-12-15T20:56:23.284Z,24.90
2022-12-15T20:58:50.705Z,22.80
2022-12-15T21:01:32.039Z,26.47
2022-12-15T21:04:01.105Z,24.40
2022-12-15T21:06:28.748Z,21.17
2022-12-15T21:08:55.860Z,21.83
2022-12-15T21:11:25.424Z,22.53
2022-12-15T21:13:55.012Z,25.43
2022-12-15T21:16:24.839Z,21.43
2022-12-15T21:21:45.790Z,23.23
2022-12-15T21:24:22.866Z,26.77
2022-12-15T21:26:50.437Z,21.97
2022-12-15T21:29:19.849Z,22.47
2022-12-15T21:31:46.700Z,23.10
2022-12-15T21:34:13.456Z,20.43
2022-12-15T21:36:42.295Z,16.40
2022-12-15T21:39:11.714Z,20.63
2022-12-15T21:41:41.855Z,17.07
2022-12-15T21:44:13.519Z,20.33
2022-12-15T21:46:40.504Z,17.93
2022-12-15T21:49:18.191Z,15.30
2022-12-15T21:51:52.251Z,20.03
2022-12-15T21:54:30.407Z,18.17
2022-12-15T21:56:58.614Z,19.47
2022-12-15T21:59:26.929Z,18.40
2022-12-15T22:01:55.200Z,15.63
2022-12-15T22:04:33.979Z,16.30
2022-12-15T22:07:01.081Z,15.37
2022-12-15T22:09:27.821Z,16.97
2022-12-15T22:11:55.479Z,16.67
2022-12-15T22:14:26.163Z,23.20
2022-12-15T22:16:53.649Z,19.73
2022-12-15T22:19:22.059Z,22.20
2022-12-15T22:21:49.395Z,21.40
2022-12-15T22:24:16.028Z,21.03
2022-12-15T22:26:43.065Z,23.40
2022-12-15T22:29:21.568Z,21.60
2022-12-15T22:31:50.098Z,22.33
2022-12-15T22:34:20.195Z,19.40
2022-12-15T22:36:47.287Z,18.23
2022-12-15T22:39:15.051Z,17.17
2022-12-15T22:41:44.654Z,23.30
2022-12-15T22:44:28.156Z,20.30
2022-12-15T22:46:56.888Z,22.13
2022-12-15T22:49:30.520Z,24.37
2022-12-15T22:51:57.113Z,27.90
2022-12-15T22:54:25.420Z,30.97
2022-12-15T22:56:59.066Z,23.67
2022-12-15T22:59:36.654Z,22.10
2022-12-15T23:02:03.450Z,24.17
2022-12-15T23:04:32.254Z,22.93
2022-12-15T23:07:04.165Z,26.37
2022-12-15T23:09:30.840Z,24.17
2022-12-15T23:11:58.959Z,22.37
2022-12-15T23:14:44.304Z,17.80
2022-12-15T23:17:12.301Z,16.00
2022-12-15T23:19:43.891Z,18.13
2022-12-15T23:22:10.714Z,22.80
2022-12-15T23:24:37.309Z,23.80
2022-12-15T23:27:03.980Z,23.60
2022-12-15T23:29:30.578Z,22.17
2022-12-15T23:31:57.137Z,25.03
2022-12-15T23:34:23.814Z,18.30
2022-12-15T23:36:50.718Z,16.83
2022-12-15T23:39:17.314Z,22.23
2022-12-15T23:41:44.037Z,20.93
2022-12-15T23:44:12.253Z,23.13
2022-12-15T23:46:38.922Z,24.80
2022-12-15T23:49:05.497Z,25.57
2022-12-15T23:51:32.056Z,21.10
2022-12-15T23:53:58.659Z,26.30
2022-12-15T23:56:25.434Z,20.53
2022-12-15T23:58:57.502Z,21.67
